Time;durP1;ratioP1;P1;durP2;ratioP2;P2;SDS_P1;SDS_P2;PMS_P1;PMS_P2;Temp;Humidity;BMP_temperature;BMP_pressure;BME280_temperature;BME280_humidity;BME280_pressure;Samples;Min_cycle;Max_cycle;Signal;HPM_P1;HPM_P2
2021/06/30 00:06:36;;;;;;;1.83;0.50;;;21.10;57.40;;;;;;6293016;28;20465;-73
2021/06/30 00:09:38;;;;;;;0.47;0.40;;;21.00;57.10;;;;;;6296087;28;20043;-73
2021/06/30 00:12:39;;;;;;;2.50;0.35;;;20.90;57.00;;;;;;6316604;28;20033;-75
2021/06/30 00:15:41;;;;;;;2.45;0.80;;;20.80;56.80;;;;;;6300729;28;20047;-73
2021/06/30 00:18:43;;;;;;;4.95;0.50;;;20.70;56.60;;;;;;6292432;28;20044;-73
2021/06/30 00:21:45;;;;;;;0.90;0.40;;;20.70;56.50;;;;;;6274687;28;20378;-75
2021/06/30 00:24:46;;;;;;;1.23;0.35;;;20.70;56.30;;;;;;6289706;28;20036;-74
2021/06/30 00:27:49;;;;;;;1.15;0.45;;;20.70;56.10;;;;;;6299478;28;20038;-74
2021/06/30 00:30:50;;;;;;;1.40;0.22;;;20.60;56.00;;;;;;6299859;28;20033;-73
2021/06/30 00:33:51;;;;;;;2.97;0.30;;;20.60;55.90;;;;;;6315544;28;20134;-73
2021/06/30 00:36:52;;;;;;;0.38;0.25;;;20.50;55.70;;;;;;6308774;28;20055;-73
2021/06/30 00:39:53;;;;;;;0.20;0.20;;;20.50;55.90;;;;;;6299064;28;20116;-73
2021/06/30 00:42:54;;;;;;;0.90;0.20;;;20.50;56.10;;;;;;6298612;28;20534;-73
2021/06/30 00:45:55;;;;;;;0.15;0.10;;;20.40;56.10;;;;;;6298683;28;20097;-73
2021/06/30 00:48:57;;;;;;;2.22;0.28;;;20.40;56.20;;;;;;6280973;28;20037;-73
2021/06/30 00:51:59;;;;;;;1.23;0.30;;;20.40;56.20;;;;;;6296192;28;20055;-74
2021/06/30 00:55:00;;;;;;;0.20;0.20;;;20.30;56.10;;;;;;6282043;28;20036;-74
2021/06/30 00:58:01;;;;;;;0.20;0.20;;;20.30;55.90;;;;;;6297548;28;20040;-73
2021/06/30 01:01:02;;;;;;;0.75;0.30;;;20.30;55.80;;;;;;6296920;28;20025;-73
2021/06/30 01:04:04;;;;;;;0.95;0.28;;;20.30;55.90;;;;;;6330534;28;20028;-73
2021/06/30 01:07:05;;;;;;;0.22;0.20;;;20.30;55.80;;;;;;6305415;28;20028;-74
2021/06/30 01:10:06;;;;;;;0.35;0.35;;;20.30;55.80;;;;;;6298854;28;20051;-73
2021/06/30 01:13:08;;;;;;;1.00;0.22;;;20.30;55.60;;;;;;6298317;28;20048;-73
2021/06/30 01:16:10;;;;;;;1.77;0.10;;;20.30;55.60;;;;;;6298452;28;20028;-73
2021/06/30 01:19:12;;;;;;;4.18;0.38;;;20.30;55.60;;;;;;6313988;28;20089;-73
2021/06/30 01:22:14;;;;;;;0.70;0.20;;;20.30;55.60;;;;;;6298171;28;20029;-74
2021/06/30 01:25:15;;;;;;;0.20;0.20;;;20.20;55.80;;;;;;6297449;28;20033;-73
2021/06/30 01:28:18;;;;;;;0.32;0.22;;;20.20;55.50;;;;;;6298260;28;20044;-74
2021/06/30 01:31:19;;;;;;;1.15;0.25;;;20.20;55.50;;;;;;6273001;28;20399;-73
2021/06/30 01:34:20;;;;;;;0.40;0.20;;;20.20;56.00;;;;;;6316544;28;20032;-73
2021/06/30 01:37:21;;;;;;;0.35;0.30;;;20.20;55.60;;;;;;6295593;28;20044;-73
2021/06/30 01:40:23;;;;;;;0.22;0.20;;;20.10;55.60;;;;;;6280946;28;20032;-73
2021/06/30 01:43:25;;;;;;;0.43;0.30;;;20.10;55.50;;;;;;6256428;28;20458;-74
2021/06/30 01:46:26;;;;;;;0.20;0.20;;;20.10;55.60;;;;;;6281067;28;20024;-74
2021/06/30 01:49:27;;;;;;;0.65;0.22;;;20.10;55.70;;;;;;6298066;28;20350;-73
2021/06/30 01:52:29;;;;;;;0.20;0.20;;;20.10;55.60;;;;;;6271896;28;20057;-73
2021/06/30 01:55:31;;;;;;;0.10;0.10;;;20.10;55.50;;;;;;6297213;28;20056;-74
2021/06/30 01:58:33;;;;;;;0.85;0.20;;;20.20;55.50;;;;;;6297832;28;20393;-73
2021/06/30 02:01:35;;;;;;;3.20;0.50;;;20.20;55.40;;;;;;6302588;28;20378;-73
2021/06/30 02:04:36;;;;;;;3.17;0.60;;;20.10;55.50;;;;;;6322333;28;20042;-73
2021/06/30 02:07:42;;;;;;;0.20;0.20;;;20.10;56.20;;;;;;6294366;28;20028;-73
2021/06/30 02:10:43;;;;;;;0.80;0.52;;;20.10;56.80;;;;;;6285651;28;20048;-74
2021/06/30 02:13:45;;;;;;;1.48;0.65;;;20.00;57.00;;;;;;6307822;28;20369;-74
2021/06/30 02:16:46;;;;;;;0.60;0.40;;;20.10;57.20;;;;;;6302566;28;20062;-73
2021/06/30 02:19:49;;;;;;;1.10;0.50;;;20.10;57.10;;;;;;6302792;28;20041;-73
2021/06/30 02:22:52;;;;;;;2.80;0.40;;;20.10;56.90;;;;;;6285282;28;20122;-73
2021/06/30 02:25:53;;;;;;;1.25;0.22;;;20.10;56.80;;;;;;6318511;28;20041;-74
2021/06/30 02:28:56;;;;;;;0.47;0.32;;;20.10;56.70;;;;;;6318482;28;20037;-74
2021/06/30 02:32:00;;;;;;;1.13;0.40;;;20.10;56.60;;;;;;6282281;28;20432;-75
2021/06/30 02:35:02;;;;;;;4.45;0.82;;;20.10;56.70;;;;;;6286787;28;20060;-73
2021/06/30 02:38:03;;;;;;;0.85;0.50;;;20.00;57.10;;;;;;6301439;28;20048;-73
2021/06/30 02:41:05;;;;;;;2.28;0.50;;;20.00;57.50;;;;;;6268990;28;20043;-73
2021/06/30 02:44:06;;;;;;;2.60;0.90;;;20.00;57.60;;;;;;6268416;28;20036;-73
2021/06/30 02:47:07;;;;;;;2.05;0.82;;;20.00;57.80;;;;;;6290102;28;20028;-73
2021/06/30 02:50:10;;;;;;;1.20;0.50;;;20.00;58.10;;;;;;6301015;28;20033;-73
2021/06/30 02:53:11;;;;;;;0.45;0.40;;;20.00;58.30;;;;;;6297998;28;20105;-74
2021/06/30 02:56:12;;;;;;;3.05;0.40;;;20.00;58.40;;;;;;6302411;28;20548;-72
2021/06/30 02:59:13;;;;;;;2.13;0.57;;;19.90;58.50;;;;;;6283503;28;20461;-74
2021/06/30 03:02:15;;;;;;;9.95;0.75;;;20.00;58.60;;;;;;6301890;28;20113;-73
2021/06/30 03:05:16;;;;;;;1.48;0.40;;;20.00;58.60;;;;;;6324927;28;20521;-75
2021/06/30 03:08:17;;;;;;;5.60;0.35;;;19.90;58.50;;;;;;6305926;28;20124;-74
2021/06/30 03:11:19;;;;;;;1.85;0.60;;;19.80;58.20;;;;;;6299893;28;20029;-74
2021/06/30 03:14:20;;;;;;;0.43;0.38;;;19.80;58.00;;;;;;6302194;28;20047;-74
2021/06/30 03:17:21;;;;;;;1.77;0.50;;;19.70;58.00;;;;;;6301060;28;20042;-74
2021/06/30 03:20:22;;;;;;;0.52;0.45;;;19.70;57.80;;;;;;6299790;28;20454;-74
2021/06/30 03:23:23;;;;;;;0.82;0.45;;;19.60;57.80;;;;;;6284350;28;20043;-74
2021/06/30 03:26:24;;;;;;;5.00;0.55;;;19.60;57.80;;;;;;6300973;28;20056;-74
2021/06/30 03:29:26;;;;;;;0.95;0.30;;;19.60;57.90;;;;;;6301793;28;20040;-74
2021/06/30 03:32:27;;;;;;;1.20;0.32;;;19.60;58.00;;;;;;6304895;28;20489;-74
2021/06/30 03:35:28;;;;;;;0.28;0.28;;;19.60;58.20;;;;;;6321299;28;20043;-74
2021/06/30 03:38:30;;;;;;;6.93;0.50;;;19.60;58.40;;;;;;6299530;28;20359;-72
2021/06/30 03:41:32;;;;;;;0.73;0.40;;;19.50;58.50;;;;;;6300455;28;20075;-74
2021/06/30 03:44:33;;;;;;;0.73;0.45;;;19.50;58.70;;;;;;6301495;28;20097;-74
2021/06/30 03:47:35;;;;;;;1.30;0.40;;;19.50;58.90;;;;;;6298060;28;20032;-73
2021/06/30 03:50:36;;;;;;;0.63;0.40;;;19.50;59.00;;;;;;6299467;28;20090;-73
2021/06/30 03:53:37;;;;;;;0.32;0.32;;;19.50;59.10;;;;;;6316612;28;20041;-73
2021/06/30 03:56:38;;;;;;;0.77;0.50;;;19.50;59.20;;;;;;6299981;28;20036;-73
2021/06/30 03:59:40;;;;;;;0.50;0.40;;;19.50;59.20;;;;;;6299876;28;20040;-73
2021/06/30 04:02:41;;;;;;;5.57;0.75;;;19.50;59.30;;;;;;6304191;28;20381;-73
2021/06/30 04:05:44;;;;;;;0.10;0.10;;;19.50;59.20;;;;;;6324668;28;20044;-73
2021/06/30 04:08:47;;;;;;;5.57;0.50;;;19.40;59.10;;;;;;6299816;28;20028;-73
2021/06/30 04:11:48;;;;;;;0.70;0.38;;;19.50;58.90;;;;;;6316731;28;20036;-73
2021/06/30 04:14:50;;;;;;;1.00;0.75;;;19.40;58.70;;;;;;6282998;28;20044;-73
2021/06/30 04:17:51;;;;;;;0.32;0.32;;;19.50;58.60;;;;;;6281110;28;20359;-73
2021/06/30 04:20:52;;;;;;;1.52;0.63;;;19.50;58.50;;;;;;6282867;28;20090;-73
2021/06/30 04:23:53;;;;;;;0.85;0.52;;;19.50;58.50;;;;;;6281594;28;20044;-74
2021/06/30 04:26:54;;;;;;;2.10;0.80;;;19.60;58.50;;;;;;6274574;28;20483;-74
2021/06/30 04:29:55;;;;;;;5.40;0.85;;;19.60;58.40;;;;;;6290996;28;20102;-74
2021/06/30 04:32:56;;;;;;;0.70;0.50;;;19.70;58.40;;;;;;6297771;28;20032;-72
2021/06/30 04:35:58;;;;;;;0.57;0.52;;;19.70;58.30;;;;;;6317742;28;20097;-72
2021/06/30 04:38:59;;;;;;;0.43;0.43;;;19.70;58.30;;;;;;6282210;28;20119;-72
2021/06/30 04:42:00;;;;;;;0.32;0.32;;;19.80;58.40;;;;;;6282317;28;20040;-74
2021/06/30 04:45:42;;;;;;;1.75;0.63;;;19.80;58.40;;;;;;6300089;28;20045;-74
2021/06/30 04:48:43;;;;;;;2.83;0.98;;;19.70;58.40;;;;;;6292291;28;20037;-74
2021/06/30 04:51:45;;;;;;;1.98;0.80;;;19.70;58.30;;;;;;6293554;28;20044;-74
2021/06/30 04:54:46;;;;;;;0.80;0.65;;;19.60;58.20;;;;;;6291468;28;20029;-74
2021/06/30 04:57:47;;;;;;;5.13;0.75;;;19.60;58.10;;;;;;6291861;28;20043;-74
2021/06/30 05:00:54;;;;;;;1.75;0.60;;;19.60;58.20;;;;;;6293442;28;20037;-74
2021/06/30 05:03:55;;;;;;;1.58;0.70;;;19.60;58.20;;;;;;6307757;28;20036;-74
2021/06/30 05:06:56;;;;;;;1.50;0.95;;;19.60;58.20;;;;;;6319491;28;20360;-72
2021/06/30 05:09:57;;;;;;;1.42;0.75;;;19.60;58.20;;;;;;6316250;28;20056;-73
2021/06/30 05:12:58;;;;;;;2.38;0.70;;;19.70;58.20;;;;;;6293962;28;20450;-73
2021/06/30 05:15:59;;;;;;;11.70;0.70;;;19.70;58.20;;;;;;6310498;28;20116;-74
2021/06/30 05:19:00;;;;;;;4.05;0.95;;;19.70;58.20;;;;;;6293810;28;20101;-73
2021/06/30 05:22:02;;;;;;;0.77;0.60;;;19.70;58.20;;;;;;6293096;28;20119;-73
2021/06/30 05:25:04;;;;;;;2.13;0.80;;;19.70;58.20;;;;;;6309989;28;20032;-73
2021/06/30 05:28:05;;;;;;;0.60;0.60;;;19.70;58.20;;;;;;6290244;28;20032;-76
2021/06/30 05:31:07;;;;;;;1.65;1.30;;;19.70;58.10;;;;;;6277406;28;20460;-74
2021/06/30 05:34:08;;;;;;;6.50;2.40;;;19.70;58.10;;;;;;6292386;28;20032;-73
2021/06/30 05:37:09;;;;;;;3.45;1.05;;;19.70;58.00;;;;;;6291765;28;20051;-73
2021/06/30 05:40:11;;;;;;;1.17;0.90;;;19.70;58.60;;;;;;6309489;28;20510;-73
2021/06/30 05:43:12;;;;;;;4.97;1.00;;;19.80;58.00;;;;;;6310360;28;20037;-73
2021/06/30 05:46:13;;;;;;;1.50;0.95;;;19.80;58.00;;;;;;6309872;28;20024;-73
2021/06/30 05:49:16;;;;;;;1.75;1.27;;;19.90;58.10;;;;;;6292995;28;20037;-74
2021/06/30 05:52:18;;;;;;;2.72;1.50;;;19.80;57.90;;;;;;6272234;28;20048;-74
2021/06/30 05:55:19;;;;;;;3.97;1.38;;;19.90;58.00;;;;;;6267845;28;20029;-73
2021/06/30 05:58:20;;;;;;;5.85;1.10;;;19.90;58.00;;;;;;6285636;28;20043;-74
2021/06/30 06:01:21;;;;;;;2.13;1.58;;;19.90;57.90;;;;;;6292420;28;20036;-74
2021/06/30 06:04:24;;;;;;;2.75;1.50;;;20.10;57.70;;;;;;6297048;28;20487;-74
2021/06/30 06:07:25;;;;;;;2.50;1.30;;;20.10;57.60;;;;;;6312170;28;20070;-74
2021/06/30 06:10:26;;;;;;;1.65;1.17;;;20.10;57.60;;;;;;6298102;28;20054;-73
2021/06/30 06:13:27;;;;;;;2.55;1.27;;;20.10;57.50;;;;;;6291324;28;20050;-74
2021/06/30 06:16:31;;;;;;;4.50;2.13;;;20.20;57.50;;;;;;6278404;28;20116;-74
2021/06/30 06:19:33;;;;;;;4.15;1.63;;;20.30;57.30;;;;;;6267312;28;20040;-74
2021/06/30 06:22:34;;;;;;;4.80;1.38;;;20.40;57.20;;;;;;6283719;28;20044;-74
2021/06/30 06:25:36;;;;;;;5.70;1.20;;;20.50;57.00;;;;;;6292013;28;20146;-73
2021/06/30 06:28:37;;;;;;;1.83;0.95;;;20.60;56.70;;;;;;6288473;28;20086;-73
2021/06/30 06:31:40;;;;;;;2.38;1.30;;;20.70;56.40;;;;;;6292623;28;20052;-73
2021/06/30 06:34:41;;;;;;;2.13;1.40;;;20.80;56.30;;;;;;6314532;28;20024;-74
2021/06/30 06:37:42;;;;;;;6.00;1.40;;;20.90;56.20;;;;;;6317992;28;20410;-75
2021/06/30 06:40:43;;;;;;;9.15;1.42;;;21.00;56.10;;;;;;6304675;28;20033;-74
2021/06/30 06:43:45;;;;;;;2.92;1.45;;;21.10;56.00;;;;;;6265824;28;20115;-73
2021/06/30 06:46:47;;;;;;;1.88;1.50;;;21.20;56.00;;;;;;6270694;28;20353;-74
2021/06/30 06:49:48;;;;;;;4.25;1.30;;;21.30;55.90;;;;;;6264467;28;20048;-73
2021/06/30 06:52:49;;;;;;;5.82;1.70;;;21.40;55.70;;;;;;6247062;28;20308;-75
2021/06/30 06:55:51;;;;;;;1.48;1.10;;;21.50;55.70;;;;;;6254558;28;20029;-74
2021/06/30 06:58:54;;;;;;;9.95;2.03;;;21.60;55.50;;;;;;6270417;28;20040;-74
2021/06/30 07:01:55;;;;;;;5.20;1.17;;;21.70;55.10;;;;;;6312168;28;20032;-74
2021/06/30 07:04:56;;;;;;;4.90;1.20;;;21.80;54.90;;;;;;6304708;28;20032;-74
2021/06/30 07:07:58;;;;;;;13.65;1.27;;;21.90;54.50;;;;;;6295156;28;20046;-73
2021/06/30 07:10:59;;;;;;;10.15;1.23;;;22.10;54.30;;;;;;6296170;28;20039;-74
2021/06/30 07:14:00;;;;;;;1.02;0.70;;;22.30;53.70;;;;;;6295377;28;20035;-75
2021/06/30 07:17:02;;;;;;;2.55;1.75;;;22.80;52.60;;;;;;6295712;28;20048;-74
2021/06/30 07:20:07;;;;;;;1.35;0.73;;;23.60;50.70;;;;;;6319919;28;20449;-75
2021/06/30 07:23:12;;;;;;;12.93;1.23;;;24.30;49.00;;;;;;6270627;28;20129;-74
2021/06/30 07:26:16;;;;;;;4.53;1.08;;;24.50;49.00;;;;;;6294405;28;20050;-74
2021/06/30 07:29:17;;;;;;;5.60;1.27;;;24.50;48.60;;;;;;6280406;28;20105;-75
2021/06/30 07:32:18;;;;;;;1.38;0.90;;;24.40;48.70;;;;;;6315611;28;20086;-73
2021/06/30 07:35:20;;;;;;;3.65;0.80;;;24.20;48.80;;;;;;6322372;28;20492;-74
2021/06/30 07:38:21;;;;;;;5.63;2.10;;;24.00;49.20;;;;;;6322634;28;20035;-74
2021/06/30 07:41:22;;;;;;;6.90;1.23;;;23.80;49.30;;;;;;6318358;28;20029;-74
2021/06/30 07:44:24;;;;;;;2.15;0.73;;;23.70;49.20;;;;;;6297116;28;20200;-74
2021/06/30 07:47:25;;;;;;;1.20;0.60;;;23.70;49.00;;;;;;6298107;28;20450;-75
2021/06/30 07:50:27;;;;;;;1.13;0.40;;;23.60;48.60;;;;;;6296283;28;20102;-74
2021/06/30 07:53:28;;;;;;;1.67;0.52;;;23.60;48.40;;;;;;6280843;28;20358;-74
2021/06/30 07:56:36;;;;;;;1.13;0.45;;;23.70;47.80;;;;;;6314407;28;20040;-74
2021/06/30 07:59:37;;;;;;;0.57;0.50;;;23.70;47.40;;;;;;6298717;28;20304;-74
2021/06/30 08:02:39;;;;;;;0.52;0.40;;;23.70;47.00;;;;;;6310806;28;20452;-75
2021/06/30 08:05:40;;;;;;;1.33;0.65;;;23.90;46.00;;;;;;6325270;28;20046;-73
2021/06/30 08:08:42;;;;;;;4.18;1.80;;;23.90;45.80;;;;;;6302241;28;20385;-74
2021/06/30 08:11:43;;;;;;;5.53;0.88;;;24.00;45.40;;;;;;6299772;28;20098;-74
2021/06/30 08:14:44;;;;;;;1.20;0.60;;;24.00;44.70;;;;;;6316055;28;20131;-74
2021/06/30 08:17:47;;;;;;;2.05;0.73;;;24.20;44.70;;;;;;6298709;28;20033;-73
2021/06/30 08:20:51;;;;;;;3.05;0.52;;;24.30;44.40;;;;;;6316583;28;20115;-74
2021/06/30 08:23:53;;;;;;;1.65;0.60;;;24.30;44.10;;;;;;6283459;28;20029;-73
2021/06/30 08:26:55;;;;;;;0.70;0.52;;;24.40;43.90;;;;;;6290132;28;20116;-74
2021/06/30 08:29:59;;;;;;;5.38;0.77;;;24.40;43.60;;;;;;6310641;28;20368;-73
2021/06/30 08:33:00;;;;;;;6.32;0.85;;;24.30;43.70;;;;;;6325771;28;20035;-73
2021/06/30 08:36:03;;;;;;;4.05;0.40;;;24.40;43.60;;;;;;6309799;28;20061;-73
2021/06/30 08:39:05;;;;;;;2.28;0.70;;;24.50;43.60;;;;;;6336145;28;20032;-73
2021/06/30 08:42:06;;;;;;;1.25;0.60;;;24.60;43.60;;;;;;6323015;28;20114;-73
2021/06/30 08:45:08;;;;;;;0.93;0.52;;;24.80;43.30;;;;;;6307425;28;20029;-74
2021/06/30 08:48:10;;;;;;;1.08;0.60;;;24.90;43.00;;;;;;6313518;28;20044;-74
2021/06/30 08:51:14;;;;;;;0.30;0.30;;;24.90;42.90;;;;;;6307261;28;20051;-74
2021/06/30 08:54:15;;;;;;;2.08;0.65;;;25.00;42.40;;;;;;6319813;28;20032;-74
2021/06/30 08:57:18;;;;;;;0.88;0.50;;;24.90;42.00;;;;;;6279783;28;20040;-74
2021/06/30 09:00:20;;;;;;;1.35;0.70;;;24.90;41.30;;;;;;6278190;28;20105;-73
2021/06/30 09:03:21;;;;;;;0.77;0.70;;;24.90;41.00;;;;;;6323686;28;20028;-74
2021/06/30 09:06:24;;;;;;;0.45;0.38;;;24.90;40.40;;;;;;6322712;28;20036;-74
2021/06/30 09:09:25;;;;;;;1.05;0.40;;;25.10;39.20;;;;;;6283537;28;20036;-74
2021/06/30 09:12:39;;;;;;;4.53;0.50;;;25.10;38.80;;;;;;6314678;28;20047;-74
2021/06/30 09:15:41;;;;;;;1.27;0.30;;;25.10;39.40;;;;;;6295741;28;20079;-74
2021/06/30 09:18:42;;;;;;;0.60;0.32;;;25.20;39.70;;;;;;6295317;28;20037;-73
2021/06/30 09:21:44;;;;;;;2.35;0.30;;;25.40;39.90;;;;;;6294098;28;20032;-75
2021/06/30 09:24:46;;;;;;;1.05;0.60;;;25.70;39.60;;;;;;6295004;28;20037;-75
2021/06/30 09:27:47;;;;;;;0.85;0.68;;;26.00;39.20;;;;;;6295057;28;20039;-74
2021/06/30 09:31:02;;;;;;;1.48;0.70;;;26.10;39.40;;;;;;6312488;28;20358;-74
2021/06/30 09:34:04;;;;;;;3.90;0.75;;;26.30;39.50;;;;;;6311080;28;20032;-74
2021/06/30 09:37:07;;;;;;;1.58;0.60;;;26.50;39.50;;;;;;6321965;28;20032;-74
2021/06/30 09:40:09;;;;;;;4.88;1.15;;;26.60;39.40;;;;;;6304366;28;20040;-74
2021/06/30 09:43:24;;;;;;;1.63;0.50;;;26.70;39.20;;;;;;6321199;28;20032;-74
2021/06/30 09:46:25;;;;;;;1.13;0.63;;;26.70;39.10;;;;;;6319501;28;20039;-74
2021/06/30 09:49:26;;;;;;;1.63;0.90;;;26.70;39.00;;;;;;6318679;28;20051;-73
2021/06/30 09:52:39;;;;;;;1.02;0.50;;;26.60;39.10;;;;;;6307761;28;20156;-73
2021/06/30 09:55:40;;;;;;;2.45;1.23;;;26.50;39.20;;;;;;6292950;28;20132;-74
2021/06/30 09:58:41;;;;;;;0.70;0.70;;;26.60;40.00;;;;;;6310969;28;20033;-73
2021/06/30 10:01:51;;;;;;;1.45;0.60;;;26.70;39.20;;;;;;6275926;28;20369;-73
2021/06/30 10:05:00;;;;;;;1.05;0.70;;;26.90;38.80;;;;;;6316350;28;20360;-75
2021/06/30 10:08:09;;;;;;;1.60;0.60;;;27.00;38.80;;;;;;6302457;28;20032;-74
2021/06/30 10:11:11;;;;;;;1.60;0.68;;;27.20;38.60;;;;;;6268389;28;20429;-74
2021/06/30 10:14:12;;;;;;;5.00;0.73;;;27.40;38.20;;;;;;6267715;28;20121;-74
2021/06/30 10:17:15;;;;;;;1.80;0.70;;;27.50;37.80;;;;;;6269958;28;20089;-74
2021/06/30 10:20:18;;;;;;;1.30;0.57;;;27.60;37.30;;;;;;6252934;28;20433;-74
2021/06/30 10:23:19;;;;;;;0.40;0.40;;;27.80;37.10;;;;;;6270048;28;20423;-75
2021/06/30 10:26:21;;;;;;;2.38;0.47;;;27.90;36.50;;;;;;6289630;28;20319;-74
2021/06/30 10:29:26;;;;;;;1.65;0.50;;;28.00;35.60;;;;;;6296097;28;20039;-73
2021/06/30 10:32:29;;;;;;;1.60;0.60;;;28.00;35.10;;;;;;6302602;28;20063;-75
2021/06/30 10:35:32;;;;;;;3.15;0.93;;;28.10;35.20;;;;;;6323622;28;20040;-74
2021/06/30 10:38:53;;;;;;;3.40;0.60;;;28.20;35.00;;;;;;6316007;28;20029;-76
2021/06/30 10:41:55;;;;;;;6.78;0.98;;;28.30;34.80;;;;;;6274235;28;20488;-76
2021/06/30 10:44:58;;;;;;;2.58;0.63;;;28.40;34.40;;;;;;6273212;28;20044;-74
2021/06/30 10:48:04;;;;;;;14.00;0.80;;;28.30;34.10;;;;;;6272794;28;20075;-75
2021/06/30 10:51:05;;;;;;;2.80;1.30;;;28.30;34.20;;;;;;6251626;28;20052;-74
2021/06/30 10:54:33;;;;;;;1.50;0.60;;;28.30;34.10;;;;;;6294139;28;20036;-75
2021/06/30 10:57:34;;;;;;;0.70;0.40;;;28.30;34.10;;;;;;6283917;28;20057;-74
2021/06/30 11:00:37;;;;;;;5.50;1.20;;;28.30;34.10;;;;;;6269536;28;20033;-73
2021/06/30 11:03:48;;;;;;;1.10;0.70;;;28.30;34.20;;;;;;6279857;28;20060;-74
2021/06/30 11:06:49;;;;;;;3.40;0.90;;;28.20;34.20;;;;;;6302698;28;20101;-73
2021/06/30 11:09:50;;;;;;;0.68;0.50;;;28.20;34.30;;;;;;6311078;28;20040;-74
2021/06/30 11:12:57;;;;;;;0.40;0.40;;;28.30;34.10;;;;;;6295224;28;20048;-74
2021/06/30 11:15:59;;;;;;;0.40;0.40;;;28.50;33.90;;;;;;6295861;28;20048;-74
2021/06/30 11:19:00;;;;;;;0.93;0.50;;;28.90;33.20;;;;;;6294946;28;20028;-74
2021/06/30 11:22:08;;;;;;;2.40;0.70;;;29.40;32.60;;;;;;6276231;28;20128;-73
2021/06/30 11:25:23;;;;;;;1.75;0.50;;;29.90;31.60;;;;;;6293959;28;20044;-74
2021/06/30 11:28:32;;;;;;;3.67;0.50;;;30.40;31.20;;;;;;6292666;28;20028;-74
2021/06/30 11:31:36;;;;;;;0.93;0.57;;;30.80;30.10;;;;;;6265268;28;20028;-75
2021/06/30 11:34:38;;;;;;;0.40;0.38;;;31.30;29.80;;;;;;6315852;28;20024;-75
2021/06/30 11:37:41;;;;;;;0.55;0.45;;;31.90;29.30;;;;;;6318367;28;20347;-75
2021/06/30 11:41:12;;;;;;;0.77;0.50;;;32.80;28.50;;;;;;6319495;28;20028;-74
2021/06/30 11:44:10;;;;;;;3.13;0.50;;;33.70;27.00;;;;;;6317177;28;20073;-74
2021/06/30 11:47:13;;;;;;;0.90;0.40;;;34.50;25.90;;;;;;6300292;28;20032;-74
2021/06/30 11:50:17;;;;;;;3.88;0.60;;;35.20;25.40;;;;;;6319190;28;20040;-75
2021/06/30 11:53:37;;;;;;;2.30;0.50;;;35.40;24.40;;;;;;6317777;28;20044;-74
2021/06/30 11:56:39;;;;;;;1.00;0.50;;;35.50;24.00;;;;;;6284377;28;20407;-74
2021/06/30 11:59:41;;;;;;;0.55;0.32;;;35.80;23.50;;;;;;6295529;28;20029;-75
2021/06/30 12:02:49;;;;;;;3.30;0.60;;;35.90;23.30;;;;;;6299593;28;20433;-74
2021/06/30 12:05:50;;;;;;;2.15;0.50;;;36.00;23.10;;;;;;6314887;28;20326;-74
2021/06/30 12:09:11;;;;;;;0.80;0.40;;;36.10;22.70;;;;;;6295600;28;20127;-74
2021/06/30 12:12:14;;;;;;;0.35;0.35;;;36.10;22.60;;;;;;6293512;28;20028;-75
2021/06/30 12:19:51;;;;;;;0.35;0.30;;;36.60;22.60;;;;;;6297776;28;20032;-75
2021/06/30 12:22:52;;;;;;;1.15;0.50;;;36.60;22.80;;;;;;6315108;28;20131;-76
2021/06/30 12:26:04;;;;;;;1.75;0.40;;;36.30;22.80;;;;;;6315456;28;20052;-76
2021/06/30 12:29:16;;;;;;;0.30;0.30;;;35.90;23.20;;;;;;6297751;28;20158;-75
2021/06/30 12:32:17;;;;;;;0.50;0.47;;;36.00;23.30;;;;;;6282826;28;20031;-74
2021/06/30 12:35:32;;;;;;;0.65;0.35;;;36.20;23.10;;;;;;6323060;28;20032;-75
2021/06/30 12:38:33;;;;;;;1.92;0.70;;;36.50;22.90;;;;;;6283763;28;20041;-75
2021/06/30 12:41:52;;;;;;;0.38;0.38;;;36.40;22.80;;;;;;6298429;28;20112;-75
2021/06/30 12:44:57;;;;;;;0.70;0.63;;;36.50;22.20;;;;;;6298523;28;20174;-76
2021/06/30 12:48:03;;;;;;;1.75;0.30;;;36.50;22.20;;;;;;6280732;28;20044;-76
2021/06/30 12:51:22;;;;;;;2.47;0.60;;;36.40;22.40;;;;;;6296588;28;20044;-74
2021/06/30 12:54:23;;;;;;;11.40;0.55;;;36.70;22.30;;;;;;6279934;28;20061;-74
2021/06/30 12:57:24;;;;;;;0.38;0.30;;;36.90;22.10;;;;;;6282272;28;20461;-74
2021/06/30 13:00:30;;;;;;;3.15;0.43;;;36.50;22.00;;;;;;6272238;28;20122;-75
2021/06/30 13:03:41;;;;;;;1.58;0.65;;;35.60;22.60;;;;;;6283735;28;20037;-75
2021/06/30 13:06:46;;;;;;;1.10;0.60;;;34.70;23.30;;;;;;6287689;28;20378;-74
2021/06/30 13:09:48;;;;;;;0.32;0.25;;;34.00;24.00;;;;;;6271695;28;20083;-74
2021/06/30 13:12:49;;;;;;;1.00;0.30;;;33.40;24.30;;;;;;6254780;28;20114;-74
2021/06/30 13:15:51;;;;;;;1.02;0.60;;;33.20;24.40;;;;;;6272177;28;20079;-74
2021/06/30 13:18:56;;;;;;;12.02;6.55;;;33.70;24.30;;;;;;6271641;28;20461;-73
2021/06/30 13:22:06;;;;;;;1.15;0.40;;;34.70;23.30;;;;;;6272836;28;20040;-75
2021/06/30 13:25:15;;;;;;;2.25;0.20;;;35.70;22.60;;;;;;6272024;28;20025;-74
2021/06/30 13:28:47;;;;;;;0.90;0.47;;;36.80;21.60;;;;;;6272159;28;20124;-75
2021/06/30 13:35:25;;;;;;;2.28;0.30;;;39.00;20.10;;;;;;6263241;28;20036;-75
2021/06/30 13:38:38;;;;;;;0.30;0.25;;;40.10;19.40;;;;;;6285639;28;20103;-74
2021/06/30 13:41:40;;;;;;;1.40;0.75;;;40.80;18.70;;;;;;6284958;28;20128;-74
2021/06/30 13:44:41;;;;;;;0.40;0.35;;;41.00;18.40;;;;;;6285442;28;20041;-74
2021/06/30 13:47:43;;;;;;;0.65;0.40;;;41.20;18.30;;;;;;6284309;28;20508;-74
2021/06/30 13:50:48;;;;;;;0.77;0.38;;;41.50;18.20;;;;;;6267896;28;20060;-74
2021/06/30 13:53:52;;;;;;;0.40;0.40;;;41.20;18.00;;;;;;6268666;28;20067;-74
2021/06/30 13:56:53;;;;;;;2.03;0.52;;;41.20;18.20;;;;;;6291111;28;20049;-74
2021/06/30 13:59:54;;;;;;;2.00;0.50;;;42.10;17.90;;;;;;6295058;28;20100;-75
2021/06/30 14:02:57;;;;;;;3.72;0.60;;;43.00;17.40;;;;;;6303180;28;20032;-74
2021/06/30 14:05:58;;;;;;;0.30;0.30;;;43.80;16.90;;;;;;6299370;28;20028;-74
2021/06/30 14:09:00;;;;;;;0.40;0.40;;;44.50;16.40;;;;;;6293555;28;20044;-74
2021/06/30 14:12:02;;;;;;;1.65;0.50;;;44.60;15.90;;;;;;6285393;28;20029;-75
2021/06/30 14:15:08;;;;;;;1.13;0.40;;;44.80;15.80;;;;;;6247210;28;20331;-75
2021/06/30 14:18:09;;;;;;;1.17;0.65;;;44.80;15.70;;;;;;6245642;28;20057;-74
2021/06/30 14:21:10;;;;;;;1.30;0.40;;;45.00;15.80;;;;;;6228982;28;20114;-74
2021/06/30 14:24:12;;;;;;;3.92;0.40;;;45.50;15.60;;;;;;6287271;28;20049;-75
2021/06/30 14:27:13;;;;;;;0.90;0.52;;;45.20;15.40;;;;;;6293152;28;20442;-75
2021/06/30 14:30:17;;;;;;;1.55;0.90;;;43.50;16.10;;;;;;6293835;28;20086;-74
2021/06/30 14:33:21;;;;;;;0.98;0.25;;;41.20;17.50;;;;;;6289186;28;20039;-75
2021/06/30 14:36:25;;;;;;;0.95;0.70;;;40.30;18.30;;;;;;6283638;28;20358;-74
2021/06/30 14:39:27;;;;;;;0.80;0.38;;;41.00;18.00;;;;;;6254375;28;20044;-74
2021/06/30 14:42:28;;;;;;;0.45;0.30;;;41.80;17.30;;;;;;6254012;28;20049;-74
2021/06/30 14:45:29;;;;;;;0.25;0.25;;;42.20;17.20;;;;;;6271283;28;20119;-75
2021/06/30 14:48:31;;;;;;;1.05;0.43;;;42.60;17.10;;;;;;6269398;28;20029;-75
2021/06/30 14:51:32;;;;;;;0.30;0.30;;;42.10;17.10;;;;;;6272013;28;20044;-76
2021/06/30 14:54:34;;;;;;;1.55;0.57;;;41.10;17.80;;;;;;6254987;28;20477;-73
2021/06/30 14:57:36;;;;;;;4.55;0.75;;;39.60;18.70;;;;;;6245795;28;20034;-75
2021/06/30 15:00:37;;;;;;;0.98;0.70;;;38.00;19.90;;;;;;6265847;28;20319;-75
2021/06/30 15:03:39;;;;;;;1.50;0.70;;;36.60;21.60;;;;;;6298638;28;20033;-73
2021/06/30 15:06:40;;;;;;;1.02;0.60;;;35.60;22.00;;;;;;6292551;28;20090;-74
2021/06/30 15:09:41;;;;;;;2.80;0.40;;;34.70;22.60;;;;;;6275616;28;20045;-74
2021/06/30 15:12:43;;;;;;;4.25;0.40;;;33.80;23.40;;;;;;6286588;28;20037;-74
2021/06/30 15:15:44;;;;;;;0.45;0.43;;;33.30;24.00;;;;;;6300185;28;20029;-74
2021/06/30 15:18:46;;;;;;;0.40;0.40;;;32.80;24.50;;;;;;6299965;28;20386;-74
2021/06/30 15:21:49;;;;;;;0.77;0.50;;;32.40;25.10;;;;;;6274352;28;20043;-74
2021/06/30 15:24:51;;;;;;;1.45;0.60;;;32.00;25.50;;;;;;6293269;28;20044;-74
2021/06/30 15:27:52;;;;;;;0.63;0.50;;;31.80;25.80;;;;;;6299607;28;20481;-74
2021/06/30 15:30:55;;;;;;;2.08;0.30;;;31.50;26.20;;;;;;6297405;28;20143;-73
2021/06/30 15:34:05;;;;;;;0.70;0.45;;;31.20;26.50;;;;;;6316286;28;20048;-75
2021/06/30 15:37:06;;;;;;;0.35;0.35;;;30.90;26.70;;;;;;6307354;28;20032;-74
2021/06/30 15:40:11;;;;;;;1.23;0.90;;;30.70;26.90;;;;;;6324361;28;20036;-75
2021/06/30 15:43:15;;;;;;;0.82;0.70;;;30.60;27.20;;;;;;6323961;28;20047;-74
2021/06/30 15:46:17;;;;;;;0.40;0.40;;;30.70;27.20;;;;;;6324520;28;20346;-74
2021/06/30 15:49:19;;;;;;;1.25;0.50;;;31.30;26.70;;;;;;6316387;28;20094;-74
2021/06/30 15:52:20;;;;;;;1.85;0.60;;;31.60;26.50;;;;;;6298031;28;20044;-75
2021/06/30 15:55:21;;;;;;;2.35;0.63;;;32.00;26.10;;;;;;6299220;28;20033;-74
2021/06/30 15:58:23;;;;;;;2.00;0.50;;;32.70;25.30;;;;;;6299142;28;20086;-76
2021/06/30 16:01:24;;;;;;;0.20;0.20;;;33.90;24.20;;;;;;6299306;28;20044;-73
2021/06/30 16:04:25;;;;;;;1.60;0.50;;;34.80;23.30;;;;;;6317605;28;20043;-73